createdAt,value
2023-02-12T00:00:04.269Z,39.6
2023-02-12T00:01:01.860Z,39.7
2023-02-12T00:02:01.842Z,39.9
2023-02-12T00:03:01.871Z,39.9
2023-02-12T00:04:01.790Z,40.0
2023-02-12T00:05:01.429Z,39.9
2023-02-12T00:06:02.440Z,40.3
2023-02-12T00:07:01.767Z,40.3
2023-02-12T00:08:01.397Z,40.2
2023-02-12T00:09:01.758Z,40.5
2023-02-12T00:10:01.503Z,40.6
2023-02-12T00:11:06.837Z,40.9
2023-02-12T00:12:02.285Z,41.2
2023-02-12T00:13:01.626Z,41.8
2023-02-12T00:14:01.898Z,42.0
2023-02-12T00:15:01.733Z,42.1
2023-02-12T00:16:04.676Z,42.2
2023-02-12T00:17:01.755Z,42.4
2023-02-12T00:18:01.485Z,42.7
2023-02-12T00:19:01.458Z,42.6
2023-02-12T00:20:01.773Z,42.7
2023-02-12T00:21:02.084Z,42.9
2023-02-12T00:22:01.422Z,43.0
2023-02-12T00:23:01.748Z,43.3
2023-02-12T00:24:02.799Z,43.3
2023-02-12T00:25:01.433Z,43.0
2023-02-12T00:26:05.097Z,43.0
2023-02-12T00:27:01.730Z,43.0
2023-02-12T00:28:01.459Z,43.3
2023-02-12T00:29:01.748Z,43.8
2023-02-12T00:30:01.785Z,44.1
2023-02-12T00:31:04.616Z,44.4
2023-02-12T00:32:01.468Z,44.5
2023-02-12T00:33:01.421Z,44.8
2023-02-12T00:34:01.398Z,45.0
2023-02-12T00:35:01.550Z,44.8
2023-02-12T00:36:01.794Z,45.0
2023-02-12T00:37:01.863Z,45.1
2023-02-12T00:38:01.817Z,45.2
2023-02-12T00:39:01.930Z,44.9
2023-02-12T00:40:01.533Z,44.9
2023-02-12T00:41:01.623Z,44.8
2023-02-12T00:42:01.736Z,44.9
2023-02-12T00:43:01.394Z,45.1
2023-02-12T00:44:01.441Z,45.3
2023-02-12T00:45:01.439Z,45.7
2023-02-12T00:46:02.204Z,46.3
2023-02-12T00:47:01.800Z,46.1
2023-02-12T00:48:01.482Z,46.2
2023-02-12T00:49:01.392Z,46.1
2023-02-12T00:50:01.433Z,46.6
2023-02-12T00:51:02.039Z,46.8
2023-02-12T00:52:04.198Z,47.0
2023-02-12T00:53:01.732Z,46.9
2023-02-12T00:54:01.758Z,47.5
2023-02-12T00:55:01.402Z,47.4
2023-02-12T00:56:02.417Z,47.5
2023-02-12T00:57:01.626Z,47.6
2023-02-12T00:58:01.775Z,48.4
2023-02-12T00:59:01.743Z,48.2
2023-02-12T01:00:01.773Z,47.7
2023-02-12T01:01:01.405Z,48.1
2023-02-12T01:02:01.900Z,47.8
2023-02-12T01:03:01.817Z,47.6
2023-02-12T01:04:01.772Z,47.9
2023-02-12T01:05:01.411Z,48.0
2023-02-12T01:06:01.761Z,48.2
2023-02-12T01:07:01.886Z,49.0
2023-02-12T01:08:02.028Z,49.3
2023-02-12T01:09:01.881Z,49.2
2023-02-12T01:10:01.757Z,49.2
2023-02-12T01:11:04.124Z,49.4
2023-02-12T01:12:01.800Z,50.2
2023-02-12T01:13:01.414Z,49.9
2023-02-12T01:14:02.001Z,49.9
2023-02-12T01:15:01.427Z,49.5
2023-02-12T01:16:05.224Z,49.5
2023-02-12T01:17:01.742Z,49.2
2023-02-12T01:18:01.840Z,49.5
2023-02-12T01:19:03.598Z,49.5
2023-02-12T01:20:02.471Z,49.4
2023-02-12T01:21:01.459Z,49.3
2023-02-12T01:22:01.407Z,49.5
2023-02-12T01:23:01.760Z,49.6
2023-02-12T01:24:01.992Z,49.3
2023-02-12T01:25:01.858Z,49.4
2023-02-12T01:26:01.389Z,49.5
2023-02-12T01:27:01.755Z,49.6
2023-02-12T01:28:01.434Z,49.9
2023-02-12T01:29:04.646Z,49.9
2023-02-12T01:30:02.570Z,50.2
2023-02-12T01:31:01.591Z,50.4
2023-02-12T01:32:01.548Z,50.3
2023-02-12T01:33:01.736Z,50.6
2023-02-12T01:34:02.312Z,50.9
2023-02-12T01:35:01.897Z,51.0
2023-02-12T01:36:01.735Z,50.4
2023-02-12T01:37:01.405Z,50.4
2023-02-12T01:38:01.742Z,50.2
2023-02-12T01:39:02.174Z,50.2
2023-02-12T01:40:02.442Z,50.2
2023-02-12T01:41:03.188Z,50.2
2023-02-12T01:42:02.855Z,50.1
2023-02-12T01:43:01.427Z,50.4
2023-02-12T01:44:12.975Z,50.0
2023-02-12T01:45:20.795Z,50.2
2023-02-12T01:46:02.789Z,50.6
2023-02-12T01:47:04.071Z,50.6
2023-02-12T01:48:01.927Z,50.7
2023-02-12T01:49:03.510Z,50.8
2023-02-12T01:50:01.873Z,51.3
2023-02-12T01:51:02.445Z,51.2
2023-02-12T01:52:09.856Z,51.2
2023-02-12T01:53:01.833Z,51.1
2023-02-12T01:54:06.032Z,51.2
2023-02-12T01:55:06.630Z,51.0
2023-02-12T01:56:02.941Z,51.4
2023-02-12T01:57:04.169Z,51.8
2023-02-12T01:58:03.295Z,51.6
2023-02-12T01:59:01.744Z,51.2
2023-02-12T02:00:05.783Z,51.5
2023-02-12T02:01:04.452Z,51.0
2023-02-12T02:02:02.877Z,51.5
2023-02-12T02:03:02.248Z,51.4
2023-02-12T02:04:06.846Z,51.3
2023-02-12T02:05:03.523Z,51.2
2023-02-12T02:06:06.595Z,51.2
2023-02-12T02:07:04.390Z,51.6
2023-02-12T02:08:01.507Z,51.5
2023-02-12T02:09:03.009Z,51.7
2023-02-12T02:10:02.123Z,51.5
2023-02-12T02:11:01.780Z,52.0
2023-02-12T02:12:02.106Z,51.8
2023-02-12T02:13:02.263Z,52.0
2023-02-12T02:14:02.126Z,52.1
2023-02-12T02:15:03.700Z,52.0
2023-02-12T02:16:10.008Z,51.7
2023-02-12T02:17:19.173Z,51.6
2023-02-12T02:18:07.540Z,51.8
2023-02-12T02:19:12.127Z,52.8
2023-02-12T02:20:20.808Z,53.1
2023-02-12T02:21:20.799Z,53.3
2023-02-12T02:22:17.501Z,53.6
2023-02-12T02:23:19.486Z,53.8
2023-02-12T02:24:19.904Z,54.0
2023-02-12T02:25:20.803Z,53.9
2023-02-12T02:26:20.794Z,54.2
2023-02-12T02:27:20.543Z,54.8
2023-02-12T02:28:10.818Z,55.5
2023-02-12T02:29:19.673Z,55.1
2023-02-12T02:30:12.713Z,55.0
2023-02-12T02:31:08.173Z,54.9
2023-02-12T02:32:07.444Z,55.1
2023-02-12T02:33:12.230Z,55.4
2023-02-12T02:34:09.525Z,54.9
2023-02-12T02:35:10.108Z,55.7
2023-02-12T02:36:14.588Z,55.8
2023-02-12T02:37:08.810Z,56.2
2023-02-12T02:38:16.954Z,56.0
2023-02-12T02:39:06.568Z,56.2
2023-02-12T02:40:10.961Z,56.9
2023-02-12T02:41:06.621Z,56.7
2023-02-12T02:42:10.365Z,56.7
2023-02-12T02:43:08.512Z,56.9
2023-02-12T02:44:09.206Z,56.7
2023-02-12T02:45:07.877Z,56.8
2023-02-12T02:46:06.451Z,57.2
2023-02-12T02:47:08.953Z,57.2
2023-02-12T02:48:05.981Z,57.2
2023-02-12T02:49:05.687Z,57.5
2023-02-12T02:50:07.033Z,57.6
2023-02-12T02:51:05.711Z,59.0
2023-02-12T02:52:07.250Z,59.1
2023-02-12T02:53:05.630Z,59.1
2023-02-12T02:54:07.630Z,58.9
2023-02-12T02:55:06.403Z,59.0
2023-02-12T02:56:05.684Z,59.3
2023-02-12T02:57:07.711Z,59.4
2023-02-12T02:58:08.672Z,59.0
2023-02-12T02:59:06.797Z,59.2
2023-02-12T03:00:11.850Z,59.0
2023-02-12T03:01:06.948Z,58.9
2023-02-12T03:02:08.172Z,59.1
2023-02-12T03:03:07.885Z,60.1
2023-02-12T03:04:06.305Z,60.2
2023-02-12T03:05:08.565Z,59.3
2023-02-12T03:06:07.811Z,59.4
2023-02-12T03:07:06.120Z,59.5
2023-02-12T03:08:09.237Z,59.8
2023-02-12T03:09:08.778Z,59.8
2023-02-12T03:10:05.598Z,59.7
2023-02-12T03:11:09.312Z,59.8
2023-02-12T03:12:06.715Z,59.9
2023-02-12T03:13:08.645Z,60.1
2023-02-12T03:14:10.960Z,60.4
2023-02-12T03:15:07.646Z,60.7
2023-02-12T03:16:07.084Z,60.8
2023-02-12T03:17:06.753Z,60.8
2023-02-12T03:18:07.685Z,60.9
2023-02-12T03:19:08.047Z,60.5
2023-02-12T03:20:07.185Z,60.4
2023-02-12T03:21:07.317Z,60.4
2023-02-12T03:22:05.307Z,60.8
2023-02-12T03:23:06.360Z,60.8
2023-02-12T03:24:10.863Z,60.7
2023-02-12T03:25:08.689Z,61.1
2023-02-12T03:26:07.714Z,61.2
2023-02-12T03:27:06.663Z,61.2
2023-02-12T03:28:06.030Z,60.8
2023-02-12T03:29:01.744Z,61.0
2023-02-12T03:30:02.094Z,60.4
2023-02-12T03:31:10.118Z,60.8
2023-02-12T03:32:13.906Z,60.8
2023-02-12T03:33:11.452Z,59.8
2023-02-12T03:34:10.322Z,59.9
2023-02-12T03:35:11.913Z,60.0
2023-02-12T03:36:10.028Z,60.0
2023-02-12T03:37:07.711Z,60.0
2023-02-12T03:38:09.481Z,60.8
2023-02-12T03:39:07.668Z,60.9
2023-02-12T03:40:14.249Z,60.6
2023-02-12T03:41:08.203Z,60.7
2023-02-12T03:42:07.710Z,61.0
2023-02-12T03:43:08.229Z,60.7
2023-02-12T03:44:09.783Z,60.6
2023-02-12T03:45:07.447Z,61.3
2023-02-12T03:46:10.094Z,61.3
2023-02-12T03:47:09.055Z,61.0
2023-02-12T03:48:08.196Z,60.6
2023-02-12T03:49:09.653Z,60.6
2023-02-12T03:50:09.190Z,60.5
2023-02-12T03:51:04.460Z,60.8
2023-02-12T03:52:03.437Z,60.6
2023-02-12T03:53:01.849Z,60.9
2023-02-12T03:54:03.417Z,61.4
2023-02-12T03:55:02.216Z,61.6
2023-02-12T03:56:06.916Z,62.0
2023-02-12T03:57:07.413Z,62.3
2023-02-12T03:58:07.443Z,62.4
2023-02-12T03:59:03.067Z,62.5
2023-02-12T04:00:08.127Z,62.9
2023-02-12T04:01:02.536Z,63.3
2023-02-12T04:02:02.071Z,63.8
2023-02-12T04:03:01.449Z,64.3
2023-02-12T04:04:04.964Z,64.5
2023-02-12T04:05:04.883Z,64.4
2023-02-12T04:06:01.400Z,64.5
2023-02-12T04:07:02.136Z,64.8
2023-02-12T04:08:06.080Z,64.9
2023-02-12T04:09:05.044Z,64.9
2023-02-12T04:10:02.244Z,64.5
2023-02-12T04:11:12.164Z,64.3
2023-02-12T04:12:16.656Z,64.3
2023-02-12T04:13:10.534Z,64.6
2023-02-12T04:14:17.204Z,65.0
2023-02-12T04:15:17.751Z,65.5
2023-02-12T04:16:14.042Z,66.2
2023-02-12T04:17:08.987Z,66.4
2023-02-12T04:18:09.196Z,66.5
2023-02-12T04:19:01.472Z,67.0
2023-02-12T04:20:09.997Z,66.4
2023-02-12T04:21:11.453Z,66.1
2023-02-12T04:22:18.666Z,66.4
2023-02-12T04:23:10.840Z,66.3
2023-02-12T04:24:12.359Z,66.0
2023-02-12T04:25:14.952Z,66.0
2023-02-12T04:26:08.316Z,66.6
2023-02-12T04:27:08.640Z,67.0
2023-02-12T04:28:09.730Z,67.3
2023-02-12T04:29:13.729Z,68.0
2023-02-12T04:30:06.382Z,67.9
2023-02-12T04:31:07.447Z,68.2
2023-02-12T04:32:10.512Z,69.5
2023-02-12T04:33:05.698Z,70.8
2023-02-12T04:34:10.634Z,71.1
2023-02-12T04:35:10.302Z,71.5
2023-02-12T04:36:07.764Z,71.8
2023-02-12T04:37:09.082Z,72.0
2023-02-12T04:38:09.141Z,71.8
2023-02-12T04:39:05.931Z,71.6
2023-02-12T04:40:05.274Z,72.1
2023-02-12T04:41:04.347Z,72.3
2023-02-12T04:42:02.462Z,72.8
2023-02-12T04:43:01.831Z,72.7
2023-02-12T04:44:15.555Z,74.1
2023-02-12T04:45:01.830Z,74.8
2023-02-12T04:46:02.218Z,74.6
2023-02-12T04:47:01.403Z,75.1
2023-02-12T04:48:02.845Z,75.0
2023-02-12T04:49:01.752Z,75.6
2023-02-12T04:50:01.442Z,75.9
2023-02-12T04:51:02.055Z,75.8
2023-02-12T04:52:01.748Z,75.8
2023-02-12T04:53:01.411Z,75.0
2023-02-12T04:54:01.740Z,74.6
2023-02-12T04:55:01.763Z,75.7
2023-02-12T04:56:01.390Z,76.4
2023-02-12T04:57:01.926Z,74.8
2023-02-12T04:58:01.957Z,74.1
2023-02-12T04:59:02.716Z,75.1
2023-02-12T05:00:02.846Z,74.9
2023-02-12T05:01:01.814Z,73.6
2023-02-12T05:02:02.082Z,72.7
2023-02-12T05:03:01.415Z,72.3
2023-02-12T05:04:01.938Z,72.0
2023-02-12T05:05:02.301Z,71.7
2023-02-12T05:06:03.072Z,71.1
2023-02-12T05:07:01.730Z,71.4
2023-02-12T05:08:01.421Z,71.7
2023-02-12T05:09:02.468Z,71.3
2023-02-12T05:10:01.825Z,71.0
2023-02-12T05:11:05.132Z,71.1
2023-02-12T05:12:01.406Z,70.9
2023-02-12T05:13:01.420Z,70.0
2023-02-12T05:14:01.744Z,69.6
2023-02-12T05:15:01.747Z,68.3
2023-02-12T05:16:04.213Z,67.5
2023-02-12T05:17:01.783Z,65.6
2023-02-12T05:18:01.748Z,65.5
2023-02-12T05:19:01.850Z,65.5
2023-02-12T05:20:01.783Z,64.9
2023-02-12T05:21:03.737Z,64.9
2023-02-12T05:22:01.734Z,65.0
2023-02-12T05:23:01.780Z,64.8
2023-02-12T05:24:02.022Z,65.0
2023-02-12T05:25:01.825Z,65.5
2023-02-12T05:26:04.741Z,64.6
2023-02-12T05:27:01.830Z,64.8
2023-02-12T05:28:01.395Z,64.4
2023-02-12T05:29:02.383Z,64.5
2023-02-12T05:30:01.391Z,64.1
2023-02-12T05:31:04.117Z,64.8
2023-02-12T05:32:02.048Z,64.9
2023-02-12T05:33:01.389Z,64.6
2023-02-12T05:34:01.847Z,64.6
2023-02-12T05:35:01.471Z,64.6
2023-02-12T05:36:04.374Z,64.8
2023-02-12T05:37:01.840Z,64.6
2023-02-12T05:38:01.804Z,65.2
2023-02-12T05:39:01.399Z,65.5
2023-02-12T05:40:01.635Z,65.2
2023-02-12T05:41:02.243Z,64.9
2023-02-12T05:42:01.730Z,65.2
2023-02-12T05:43:02.292Z,65.2
2023-02-12T05:44:01.839Z,65.1
2023-02-12T05:45:01.731Z,65.3
2023-02-12T05:46:03.319Z,65.4
2023-02-12T05:47:01.383Z,65.1
2023-02-12T05:48:01.379Z,64.8
2023-02-12T05:49:01.430Z,64.9
2023-02-12T05:50:01.405Z,64.5
2023-02-12T05:51:02.295Z,64.5
2023-02-12T05:52:01.411Z,64.5
2023-02-12T05:53:01.901Z,64.1
2023-02-12T05:54:04.847Z,64.0
2023-02-12T05:55:02.170Z,64.1
2023-02-12T05:56:11.341Z,64.1
2023-02-12T05:57:01.731Z,63.5
2023-02-12T05:58:01.385Z,63.4
2023-02-12T05:59:04.370Z,63.2
2023-02-12T06:00:01.447Z,63.1
2023-02-12T06:01:02.017Z,63.3
2023-02-12T06:02:01.749Z,63.2
2023-02-12T06:03:01.399Z,63.0
2023-02-12T06:04:03.063Z,62.9
2023-02-12T06:05:02.287Z,63.2
2023-02-12T06:06:01.407Z,63.1
2023-02-12T06:07:01.409Z,62.7
2023-02-12T06:08:01.384Z,62.9
2023-02-12T06:09:02.032Z,62.8
2023-02-12T06:10:01.415Z,62.8
2023-02-12T06:11:02.718Z,63.3
2023-02-12T06:12:02.123Z,63.0
2023-02-12T06:13:01.400Z,62.7
2023-02-12T06:14:02.241Z,62.1
2023-02-12T06:15:01.740Z,62.3
2023-02-12T06:16:02.337Z,62.6
2023-02-12T06:17:01.440Z,62.7
2023-02-12T06:18:01.729Z,62.9
2023-02-12T06:19:04.095Z,63.2
2023-02-12T06:20:02.187Z,63.2
2023-02-12T06:21:02.984Z,63.2
2023-02-12T06:22:01.906Z,63.0
2023-02-12T06:23:01.727Z,62.8
2023-02-12T06:24:01.402Z,63.2
2023-02-12T06:25:01.392Z,62.8
2023-02-12T06:26:01.731Z,63.2
2023-02-12T06:27:02.002Z,63.1
2023-02-12T06:28:01.769Z,63.2
2023-02-12T06:29:01.793Z,62.9
2023-02-12T06:30:01.396Z,63.2
2023-02-12T06:31:01.527Z,63.4
2023-02-12T06:32:01.624Z,63.7
2023-02-12T06:33:01.400Z,63.2
2023-02-12T06:34:04.283Z,63.2
2023-02-12T06:35:01.393Z,63.4
2023-02-12T06:36:02.884Z,62.8
2023-02-12T06:37:01.782Z,62.8
2023-02-12T06:38:02.263Z,63.0
2023-02-12T06:39:01.795Z,63.2
2023-02-12T06:40:01.561Z,62.8
2023-02-12T06:41:01.953Z,62.8
2023-02-12T06:42:01.745Z,62.8
2023-02-12T06:43:01.767Z,62.9
2023-02-12T06:44:02.075Z,62.3
2023-02-12T06:45:01.437Z,61.9
2023-02-12T06:46:02.501Z,61.7
2023-02-12T06:47:01.490Z,61.7
2023-02-12T06:48:01.772Z,61.8
2023-02-12T06:49:01.744Z,61.8
2023-02-12T06:50:01.856Z,61.7
2023-02-12T06:51:06.394Z,62.1
2023-02-12T06:52:03.291Z,62.0
2023-02-12T06:53:01.733Z,61.9
2023-02-12T06:54:01.736Z,61.6
2023-02-12T06:55:01.430Z,61.4
2023-02-12T06:56:02.404Z,61.6
2023-02-12T06:57:01.436Z,61.8
2023-02-12T06:58:01.423Z,61.3
2023-02-12T06:59:01.746Z,61.6
2023-02-12T07:00:01.626Z,61.3
2023-02-12T07:01:08.379Z,61.2
2023-02-12T07:02:01.424Z,60.9
2023-02-12T07:03:01.419Z,61.2
2023-02-12T07:04:02.947Z,61.4
2023-02-12T07:05:01.893Z,62.0
2023-02-12T07:06:03.297Z,62.0
2023-02-12T07:07:01.418Z,62.1
2023-02-12T07:08:01.398Z,62.2
2023-02-12T07:09:02.950Z,63.0
2023-02-12T07:10:01.854Z,62.3
2023-02-12T07:11:02.145Z,62.6
2023-02-12T07:12:01.772Z,62.6
2023-02-12T07:13:01.395Z,62.7
2023-02-12T07:14:01.746Z,62.4
2023-02-12T07:15:01.762Z,62.2
2023-02-12T07:16:03.196Z,62.3
2023-02-12T07:17:01.409Z,62.3
2023-02-12T07:18:01.390Z,62.4
2023-02-12T07:19:01.397Z,62.1
2023-02-12T07:20:02.025Z,62.0
2023-02-12T07:21:02.584Z,62.1
2023-02-12T07:22:02.401Z,62.5
2023-02-12T07:23:01.409Z,62.5
2023-02-12T07:24:01.392Z,62.4
2023-02-12T07:25:01.384Z,62.5
2023-02-12T07:26:04.709Z,62.2
2023-02-12T07:27:01.423Z,61.8
2023-02-12T07:28:01.747Z,61.8
2023-02-12T07:29:01.416Z,61.6
2023-02-12T07:30:01.405Z,61.6
2023-02-12T07:31:07.890Z,61.6
2023-02-12T07:32:01.843Z,61.4
2023-02-12T07:33:01.748Z,61.4
2023-02-12T07:34:02.071Z,61.6
2023-02-12T07:35:01.761Z,61.8
2023-02-12T07:36:02.078Z,61.7
2023-02-12T07:37:01.780Z,61.6
2023-02-12T07:38:01.730Z,61.5
2023-02-12T07:39:02.480Z,61.9
2023-02-12T07:40:01.751Z,61.7
2023-02-12T07:41:11.019Z,61.4
2023-02-12T07:42:01.720Z,61.7
2023-02-12T07:43:01.405Z,61.6
2023-02-12T07:44:03.537Z,61.7
2023-02-12T07:45:01.416Z,61.4
2023-02-12T07:46:10.438Z,61.5
2023-02-12T07:47:01.731Z,61.8
2023-02-12T07:48:01.745Z,62.1
2023-02-12T07:49:03.623Z,62.0
2023-02-12T07:50:01.393Z,61.9
2023-02-12T07:51:04.337Z,62.2
2023-02-12T07:52:01.764Z,62.1
2023-02-12T07:53:02.333Z,62.1
2023-02-12T07:54:03.318Z,62.2
2023-02-12T07:55:01.662Z,61.9
2023-02-12T07:56:05.791Z,61.9
2023-02-12T07:57:01.749Z,62.2
2023-02-12T07:58:01.382Z,62.3
2023-02-12T07:59:04.939Z,62.3
2023-02-12T08:00:02.588Z,62.2
2023-02-12T08:01:13.290Z,62.7
2023-02-12T08:02:01.525Z,63.8
2023-02-12T08:03:01.734Z,63.6
2023-02-12T08:04:03.352Z,63.2
2023-02-12T08:05:01.778Z,63.4
2023-02-12T08:06:06.099Z,64.3
2023-02-12T08:07:01.401Z,64.8
2023-02-12T08:08:01.401Z,64.7
2023-02-12T08:09:03.788Z,64.5
2023-02-12T08:10:01.743Z,64.6
2023-02-12T08:11:01.387Z,64.5
2023-02-12T08:12:01.864Z,64.5
2023-02-12T08:13:01.393Z,64.9
2023-02-12T08:14:02.077Z,65.2
2023-02-12T08:15:01.763Z,65.0
2023-02-12T08:16:02.049Z,65.4
2023-02-12T08:17:01.665Z,65.5
2023-02-12T08:18:01.415Z,65.4
2023-02-12T08:19:15.900Z,65.2
2023-02-12T08:20:01.427Z,65.2
2023-02-12T08:21:03.490Z,65.0
2023-02-12T08:22:02.076Z,65.4
2023-02-12T08:23:01.386Z,65.4
2023-02-12T08:24:01.896Z,65.8
2023-02-12T08:25:01.398Z,66.2
2023-02-12T08:26:05.658Z,66.0
2023-02-12T08:27:01.745Z,65.2
2023-02-12T08:28:01.649Z,63.6
2023-02-12T08:29:05.361Z,64.1
2023-02-12T08:30:01.443Z,64.2
2023-02-12T08:31:02.299Z,65.1
2023-02-12T08:32:03.228Z,64.4
2023-02-12T08:33:01.395Z,64.1
2023-02-12T08:34:01.948Z,64.1
2023-02-12T08:35:01.877Z,64.2
2023-02-12T08:36:02.593Z,63.0
2023-02-12T08:37:05.087Z,63.1
2023-02-12T08:38:01.413Z,63.2
2023-02-12T08:39:02.027Z,63.4
2023-02-12T08:40:01.747Z,63.1
2023-02-12T08:41:03.185Z,63.4
2023-02-12T08:42:01.403Z,63.5
2023-02-12T08:43:01.763Z,63.0
2023-02-12T08:44:03.601Z,63.7
2023-02-12T08:45:01.405Z,63.9
2023-02-12T08:46:03.206Z,64.2
2023-02-12T08:47:01.752Z,63.9
2023-02-12T08:48:01.405Z,63.8
2023-02-12T08:49:03.624Z,63.7
2023-02-12T08:50:01.656Z,64.1
2023-02-12T08:51:07.216Z,63.6
2023-02-12T08:52:01.403Z,64.2
2023-02-12T08:53:01.793Z,64.1
2023-02-12T08:54:03.636Z,64.8
2023-02-12T08:55:01.401Z,64.9
2023-02-12T08:56:01.980Z,64.8
2023-02-12T08:57:02.520Z,64.7
2023-02-12T08:58:01.395Z,65.3
2023-02-12T08:59:03.990Z,65.5
2023-02-12T09:00:01.414Z,65.6
2023-02-12T09:01:02.127Z,65.8
2023-02-12T09:02:01.809Z,65.7
2023-02-12T09:03:01.741Z,66.3
2023-02-12T09:04:01.746Z,66.3
2023-02-12T09:05:01.738Z,66.0
2023-02-12T09:06:02.530Z,65.8
2023-02-12T09:07:01.847Z,65.5
2023-02-12T09:08:01.404Z,65.5
2023-02-12T09:09:02.298Z,65.3
2023-02-12T09:10:01.394Z,65.5
2023-02-12T09:11:04.645Z,65.3
2023-02-12T09:12:01.632Z,65.1
2023-02-12T09:13:01.708Z,64.5
2023-02-12T09:14:03.745Z,64.1
2023-02-12T09:15:01.798Z,64.1
2023-02-12T09:16:03.142Z,63.9
2023-02-12T09:17:01.469Z,64.1
2023-02-12T09:18:01.389Z,64.2
2023-02-12T09:19:02.270Z,63.9
2023-02-12T09:20:01.446Z,64.0
2023-02-12T09:21:04.112Z,63.6
2023-02-12T09:22:01.708Z,63.7
2023-02-12T09:23:01.631Z,63.8
2023-02-12T09:24:01.986Z,63.7
2023-02-12T09:25:01.740Z,63.5
2023-02-12T09:26:04.085Z,63.7
2023-02-12T09:27:01.391Z,63.7
2023-02-12T09:28:02.295Z,64.0
2023-02-12T09:29:02.959Z,63.2
2023-02-12T09:30:01.426Z,62.8
2023-02-12T09:31:05.640Z,63.0
2023-02-12T09:32:01.554Z,63.0
2023-02-12T09:33:01.382Z,62.8
2023-02-12T09:34:04.459Z,62.7
2023-02-12T09:35:01.419Z,63.1
2023-02-12T09:36:02.417Z,62.7
2023-02-12T09:37:01.719Z,63.4
2023-02-12T09:38:02.001Z,63.0
2023-02-12T09:39:02.173Z,63.1
2023-02-12T09:40:01.743Z,63.1
2023-02-12T09:41:16.096Z,63.0
2023-02-12T09:42:18.583Z,62.8
2023-02-12T09:43:14.405Z,62.8
2023-02-12T09:44:10.421Z,62.8
2023-02-12T09:45:09.558Z,62.6
2023-02-12T09:46:07.831Z,62.6
2023-02-12T09:47:06.057Z,62.6
2023-02-12T09:48:13.485Z,62.3
2023-02-12T09:49:09.251Z,62.5
2023-02-12T09:50:18.932Z,62.4
2023-02-12T09:51:05.425Z,62.6
2023-02-12T09:52:03.624Z,62.4
2023-02-12T09:53:01.736Z,62.4
2023-02-12T09:54:05.066Z,62.4
2023-02-12T09:55:02.232Z,62.6
2023-02-12T09:56:02.324Z,62.6
2023-02-12T09:57:11.565Z,62.5
2023-02-12T09:58:10.359Z,62.8
2023-02-12T09:59:07.325Z,62.6
2023-02-12T10:00:07.485Z,62.3
2023-02-12T10:01:11.527Z,62.4
2023-02-12T10:02:01.839Z,62.8
2023-02-12T10:03:05.725Z,62.4
2023-02-12T10:04:04.266Z,61.9
2023-02-12T10:05:02.804Z,61.9
2023-02-12T10:06:06.847Z,61.7
2023-02-12T10:07:14.583Z,61.8
2023-02-12T10:08:18.587Z,61.9
2023-02-12T10:09:14.406Z,61.8
2023-02-12T10:10:14.282Z,62.0
2023-02-12T10:11:20.827Z,62.2
2023-02-12T10:12:11.909Z,62.3
2023-02-12T10:13:06.569Z,62.1
2023-02-12T10:14:18.167Z,62.0
2023-02-12T10:15:12.145Z,62.1
2023-02-12T10:16:12.216Z,62.5
2023-02-12T10:17:11.280Z,62.4
2023-02-12T10:18:18.988Z,61.9
2023-02-12T10:19:19.136Z,61.8
2023-02-12T10:20:20.810Z,61.8
2023-02-12T10:21:13.512Z,61.9
2023-02-12T10:22:12.763Z,62.0
2023-02-12T10:23:17.159Z,62.1
2023-02-12T10:24:16.221Z,62.4
2023-02-12T10:25:15.017Z,62.7
2023-02-12T10:26:12.457Z,62.6
2023-02-12T10:27:11.001Z,62.7
2023-02-12T10:28:10.892Z,62.6
2023-02-12T10:29:12.317Z,62.9
2023-02-12T10:30:06.043Z,62.9
2023-02-12T10:31:04.992Z,62.6
2023-02-12T10:32:07.112Z,62.7
2023-02-12T10:33:06.358Z,62.5
2023-02-12T10:34:13.585Z,62.7
2023-02-12T10:35:11.467Z,62.7
2023-02-12T10:36:11.912Z,62.3
2023-02-12T10:37:10.694Z,62.2
2023-02-12T10:38:06.530Z,62.6
2023-02-12T10:39:11.814Z,62.5
2023-02-12T10:40:13.192Z,62.6
2023-02-12T10:41:01.751Z,63.1
2023-02-12T10:42:09.923Z,62.9
2023-02-12T10:43:02.227Z,63.3
2023-02-12T10:44:01.724Z,63.3
2023-02-12T10:45:01.652Z,63.1
2023-02-12T10:46:02.375Z,63.1
2023-02-12T10:47:01.406Z,63.0
2023-02-12T10:48:09.498Z,63.1
2023-02-12T10:49:02.302Z,63.4
2023-02-12T10:50:12.683Z,63.5
2023-02-12T10:51:20.729Z,63.5
2023-02-12T10:52:11.856Z,63.6
2023-02-12T10:53:02.330Z,63.8
2023-02-12T10:54:20.788Z,63.6
2023-02-12T10:55:01.776Z,63.5
2023-02-12T10:56:14.445Z,63.6
2023-02-12T10:57:10.033Z,63.7
2023-02-12T10:58:03.879Z,63.9
2023-02-12T10:59:01.755Z,63.9
2023-02-12T11:00:20.793Z,64.2
2023-02-12T11:01:03.189Z,64.3
2023-02-12T11:02:02.183Z,64.4
2023-02-12T11:03:13.910Z,64.1
2023-02-12T11:04:20.019Z,63.8
2023-02-12T11:05:20.816Z,63.7
2023-02-12T11:06:13.305Z,63.7
2023-02-12T11:07:04.602Z,64.1
2023-02-12T11:08:01.953Z,64.4
2023-02-12T11:09:01.497Z,64.3
2023-02-12T11:10:01.385Z,64.4
2023-02-12T11:11:06.790Z,64.6
2023-02-12T11:12:02.793Z,64.2
2023-02-12T11:13:03.245Z,64.5
2023-02-12T11:14:05.268Z,64.5
2023-02-12T11:15:12.008Z,64.6
2023-02-12T11:16:02.734Z,64.7
2023-02-12T11:17:01.438Z,64.5
2023-02-12T11:18:05.521Z,64.7
2023-02-12T11:19:03.477Z,64.9
2023-02-12T11:20:14.979Z,64.5
2023-02-12T11:21:04.190Z,64.6
2023-02-12T11:22:09.240Z,64.3
2023-02-12T11:23:03.866Z,64.0
2023-02-12T11:24:20.796Z,64.0
2023-02-12T11:25:14.397Z,64.3
2023-02-12T11:26:04.002Z,64.1
2023-02-12T11:27:12.590Z,64.0
2023-02-12T11:28:05.411Z,64.2
2023-02-12T11:29:12.627Z,64.3
2023-02-12T11:30:13.695Z,64.1
2023-02-12T11:31:03.216Z,64.2
2023-02-12T11:32:03.713Z,64.1
2023-02-12T11:33:15.484Z,64.3
2023-02-12T11:34:08.278Z,63.9
2023-02-12T11:35:10.307Z,63.9
2023-02-12T11:36:11.097Z,63.6
2023-02-12T11:37:02.306Z,63.6
2023-02-12T11:38:02.865Z,63.5
2023-02-12T11:39:02.996Z,63.4
2023-02-12T11:40:02.472Z,63.3
2023-02-12T11:41:06.610Z,63.2
2023-02-12T11:42:05.509Z,63.4
2023-02-12T11:43:05.504Z,63.7
2023-02-12T11:44:09.911Z,63.4
2023-02-12T11:45:02.049Z,63.6
2023-02-12T11:46:03.276Z,63.6
2023-02-12T11:47:04.018Z,63.6
2023-02-12T11:48:02.292Z,63.6
2023-02-12T11:49:02.135Z,63.7
2023-02-12T11:50:08.182Z,63.2
2023-02-12T11:51:03.876Z,63.3
2023-02-12T11:52:04.124Z,63.3
2023-02-12T11:53:07.587Z,63.5
2023-02-12T11:54:04.164Z,63.0
2023-02-12T11:55:07.253Z,63.1
2023-02-12T11:56:05.179Z,62.9
2023-02-12T11:57:01.941Z,63.0
2023-02-12T11:58:04.555Z,63.0
2023-02-12T11:59:18.434Z,63.1
2023-02-12T12:00:04.676Z,63.1
2023-02-12T12:01:07.741Z,63.1
2023-02-12T12:02:15.209Z,62.9
2023-02-12T12:03:10.352Z,63.1
2023-02-12T12:04:07.786Z,62.9
2023-02-12T12:05:08.646Z,62.9
2023-02-12T12:06:06.313Z,62.7
2023-02-12T12:07:10.024Z,62.8
2023-02-12T12:08:06.684Z,62.8
2023-02-12T12:09:09.696Z,62.8
2023-02-12T12:10:12.579Z,63.0
2023-02-12T12:11:09.489Z,63.0
2023-02-12T12:12:13.230Z,63.1
2023-02-12T12:13:05.045Z,63.4
2023-02-12T12:14:07.321Z,63.4
2023-02-12T12:15:05.881Z,63.4
2023-02-12T12:16:10.015Z,63.4
2023-02-12T12:17:08.130Z,63.3
2023-02-12T12:18:14.147Z,63.1
2023-02-12T12:19:09.606Z,63.3
2023-02-12T12:20:09.139Z,62.9
2023-02-12T12:21:08.727Z,63.0
2023-02-12T12:22:04.816Z,62.9
2023-02-12T12:23:08.706Z,62.7
2023-02-12T12:24:09.012Z,62.2
2023-02-12T12:25:12.131Z,62.4
2023-02-12T12:26:07.494Z,62.5
2023-02-12T12:27:09.739Z,62.3
2023-02-12T12:28:10.607Z,62.3
2023-02-12T12:29:10.583Z,62.3
2023-02-12T12:30:06.488Z,62.0
2023-02-12T12:31:09.664Z,62.5
2023-02-12T12:32:04.423Z,62.0
2023-02-12T12:33:08.177Z,61.8
2023-02-12T12:34:07.894Z,62.3
2023-02-12T12:35:01.968Z,61.9
2023-02-12T12:36:14.838Z,61.8
2023-02-12T12:37:16.392Z,61.9
2023-02-12T12:38:14.854Z,62.2
2023-02-12T12:39:14.707Z,61.5
2023-02-12T12:40:20.806Z,61.5
2023-02-12T12:41:14.728Z,61.6
2023-02-12T12:42:20.704Z,61.7
2023-02-12T12:43:10.413Z,61.8
2023-02-12T12:44:17.748Z,61.0
2023-02-12T12:45:14.040Z,60.9
2023-02-12T12:46:15.354Z,60.8
2023-02-12T12:47:11.805Z,60.3
2023-02-12T12:48:15.002Z,60.0
2023-02-12T12:49:20.827Z,59.8
2023-02-12T12:50:20.819Z,59.3
2023-02-12T12:51:13.759Z,59.5
2023-02-12T12:52:11.910Z,60.0
2023-02-12T12:53:18.909Z,59.5
2023-02-12T12:54:18.124Z,59.3
2023-02-12T12:55:20.804Z,58.4
2023-02-12T12:56:14.550Z,58.3
2023-02-12T12:57:09.219Z,57.7
2023-02-12T12:58:13.643Z,57.7
2023-02-12T12:59:20.802Z,57.8
2023-02-12T13:00:13.947Z,57.4
2023-02-12T13:01:15.820Z,57.0
2023-02-12T13:02:20.824Z,56.2
2023-02-12T13:03:19.439Z,56.6
2023-02-12T13:04:20.802Z,56.4
2023-02-12T13:05:20.795Z,56.3
2023-02-12T13:06:12.205Z,56.6
2023-02-12T13:07:17.647Z,57.1
2023-02-12T13:08:15.413Z,56.7
2023-02-12T13:09:18.715Z,56.0
2023-02-12T13:10:15.793Z,54.9
2023-02-12T13:11:12.282Z,54.7
2023-02-12T13:12:18.739Z,53.7
2023-02-12T13:13:14.490Z,53.6
2023-02-12T13:14:17.323Z,54.3
2023-02-12T13:15:13.415Z,53.6
2023-02-12T13:16:10.892Z,53.2
2023-02-12T13:17:12.518Z,52.8
2023-02-12T13:18:12.352Z,52.6